< < Back
Terminal Aerodrome Forecast


Current Version              Previous Versions:   1  2  3  4  5  6  7  8  9  

Terminal Aerodrome Forecast

463
FTUS44 KBMX 032331
TAFTCL
TAF
KTCL 032331Z 0400/0424 11004KT P6SM SKC
     FM040200 00000KT P6SM SKC
     FM041500 06005KT P6SM SKC=

Latest METAR

649
SAUS70 KWBC 040900 RRG
MTRTCL
METAR KTCL 040853Z AUTO 00000KT 9SM CLR 22/20 A2995 RMK AO2 SLP140
T02220200 53006


USA.gov is the U.S. government's official web portal to all federal, state and local government web resources and services.